createdAt,value
2022-08-26T00:09:57.397Z,75
2022-08-26T00:19:57.961Z,76
2022-08-26T00:40:00.838Z,76
2022-08-26T00:50:00.759Z,76
2022-08-26T01:10:02.521Z,77
2022-08-26T01:20:03.103Z,78
2022-08-26T01:30:03.793Z,79
2022-08-26T01:40:04.404Z,79
2022-08-26T02:10:06.221Z,82
2022-08-26T02:20:07.043Z,83
2022-08-26T02:30:07.235Z,83
2022-08-26T03:00:08.942Z,86
2022-08-26T03:10:09.153Z,87
2022-08-26T03:20:09.381Z,87
2022-08-26T03:30:11.711Z,87
2022-08-26T03:40:10.605Z,88
2022-08-26T03:50:11.341Z,88
2022-08-26T04:00:11.549Z,89
2022-08-26T04:10:12.265Z,89
2022-08-26T04:30:14.022Z,90
2022-08-26T04:40:14.554Z,90
2022-08-26T04:50:15.434Z,90
2022-08-26T05:00:15.830Z,90
2022-08-26T05:10:15.986Z,90
2022-08-26T05:20:16.997Z,90
2022-08-26T05:30:17.758Z,90
2022-08-26T05:40:18.239Z,90
2022-08-26T05:50:18.522Z,89
2022-08-26T06:00:19.516Z,89
2022-08-26T06:10:31.895Z,89
2022-08-26T06:20:20.671Z,89
2022-08-26T06:30:21.191Z,88
2022-08-26T06:40:22.119Z,88
2022-08-26T07:20:24.242Z,87
2022-08-26T08:20:28.002Z,86
2022-08-26T08:30:28.252Z,86
2022-08-26T08:40:29.310Z,86
2022-08-26T08:50:29.064Z,86
2022-08-26T09:00:30.183Z,85
2022-08-26T09:10:30.516Z,85
2022-08-26T09:20:31.403Z,84
2022-08-26T09:30:32.332Z,84
2022-08-26T09:40:34.766Z,83
2022-08-26T09:50:33.508Z,83
2022-08-26T10:00:34.140Z,82
2022-08-26T10:10:34.416Z,82
2022-08-26T10:20:35.463Z,82
2022-08-26T10:30:36.111Z,81
2022-08-26T10:40:37.043Z,81
2022-08-26T10:50:37.629Z,81
2022-08-26T11:00:38.050Z,81
2022-08-26T11:10:39.107Z,81
2022-08-26T11:20:41.716Z,80
2022-08-26T11:30:40.300Z,79
2022-08-26T11:40:41.395Z,78
2022-08-26T11:50:41.709Z,79
2022-08-26T12:00:42.988Z,78
2022-08-26T12:10:42.219Z,78
2022-08-26T12:20:42.621Z,79
2022-08-26T12:30:42.906Z,77
2022-08-26T12:40:43.922Z,77
2022-08-26T12:50:44.954Z,77
2022-08-26T13:00:45.556Z,77
2022-08-26T13:10:46.291Z,76
2022-08-26T13:20:46.678Z,76
2022-08-26T13:30:47.258Z,76
2022-08-26T13:40:47.765Z,76
2022-08-26T13:50:48.516Z,76
2022-08-26T14:00:49.403Z,75
2022-08-26T14:10:49.503Z,75
2022-08-26T14:20:49.703Z,75
2022-08-26T14:30:50.426Z,76
2022-08-26T14:40:50.524Z,77
2022-08-26T14:50:50.693Z,77
2022-08-26T15:00:51.407Z,77
2022-08-26T15:10:51.587Z,78
2022-08-26T15:20:52.309Z,78
2022-08-26T15:30:53.369Z,79
2022-08-26T15:40:53.645Z,80
2022-08-26T15:50:54.563Z,80
2022-08-26T16:00:55.372Z,81
2022-08-26T16:10:55.687Z,81
2022-08-26T16:21:02.879Z,80
2022-08-26T16:30:56.553Z,80
2022-08-26T16:40:57.250Z,80
2022-08-26T16:50:57.437Z,80
2022-08-26T17:10:58.629Z,80
2022-08-26T17:20:59.173Z,80
2022-08-26T17:30:59.759Z,80
2022-08-26T17:40:59.792Z,80
2022-08-26T17:51:00.550Z,80
2022-08-26T18:01:01.578Z,80
2022-08-26T18:11:02.120Z,80
2022-08-26T18:21:02.628Z,81
2022-08-26T18:31:03.258Z,81
2022-08-26T18:41:03.694Z,81
2022-08-26T18:51:04.542Z,82
2022-08-26T19:01:05.731Z,82
2022-08-26T19:11:05.814Z,83
2022-08-26T19:21:05.929Z,83
2022-08-26T19:31:06.595Z,84
2022-08-26T19:51:07.690Z,85
2022-08-26T20:01:08.413Z,86
2022-08-26T20:21:08.817Z,88
2022-08-26T20:41:10.300Z,89
2022-08-26T20:51:10.548Z,89
2022-08-26T21:01:11.588Z,89
2022-08-26T21:11:12.548Z,89
2022-08-26T21:21:13.100Z,90
2022-08-26T21:31:13.828Z,91
2022-08-26T21:41:14.495Z,91
2022-08-26T21:51:14.981Z,92
2022-08-26T22:01:15.291Z,91
2022-08-26T22:11:15.694Z,92
2022-08-26T22:21:16.481Z,92
2022-08-26T22:31:16.838Z,92
2022-08-26T22:41:17.189Z,92
2022-08-26T23:01:18.524Z,93
2022-08-26T23:11:19.093Z,93
2022-08-26T23:21:19.304Z,93
2022-08-26T23:31:20.367Z,93
2022-08-26T23:41:21.342Z,93
2022-08-26T23:51:22.062Z,93
